Terminal Aerodrome Forecast
Issued by NWS

Home | Current Version | Previous Version | Text Only | Print | Product List | Glossary On
Versions: 1 2 3 4 5 6 7 8 9 10 11 12 13
000
FTUS43 KDVN 281128
TAFCID
TAF
KCID 281128Z 2812/2912 14007KT P6SM -RA OVC070
     FM281500 14012KT 5SM -RA BR SCT025 OVC040
     FM281800 13009KT 3SM -RA BR OVC025
     FM290300 14008KT 4SM BR OVC040=

USA.gov is the U.S. government's official web portal to all federal, state and local government web resources and services.